OPDR Tanger — 5BAH2 — position and weather

sailwx.info

Track history (hours):
 
Tides and Currents Weather Stations Pressure Air Temp Water Temp Dewpoint Dewpoint Depression Visibility Wind Speed Wind Dir Waves Ship Positions

OPDR Tanger

Last reported at 2017-Oct-17 18:30 UTC. Time now 2017-Oct-17 18:53 UTC.
Position N 36°42' W 008°56'.

Length 130 m; draft 7 m.

Type: Ship (hazmat cat A). MMSI: 212818000.

Date/timePositionNaut miles runAvg speedWind from/ knotsBaromVisibWave heightAir tempDewpointWater temp
2017-Oct-17 18:30N 36°42' W 008°56'16813.5
2017-Oct-17 06:00N 35°57' W 005°35'714.0
2017-Oct-17 05:30N 36°00' W 005°27'713.0
2017-Oct-17 05:00N 36°06' W 005°24'2 3.5
2017-Oct-17 04:29N 36°08' W 005°25'0 0.0
2017-Oct-17 03:59N 36°08' W 005°25'0 0.0
2017-Oct-17 03:11N 36°08' W 005°25'0 0.0
2017-Oct-17 02:59N 36°08' W 005°25'0 0.0
2017-Oct-17 02:29N 36°08' W 005°25'0 0.0
2017-Oct-17 01:59N 36°08' W 005°25'0 0.0
2017-Oct-17 01:29N 36°08' W 005°25'1 0.2
2017-Oct-16 18:17N 36°07' W 005°24'410.5
2017-Oct-16 17:57N 36°04' W 005°22'4 8.4
2017-Oct-16 17:30N 36°04' W 005°17'2 4.4
2017-Oct-16 17:00N 36°03' W 005°20'3 2.9
2017-Oct-16 16:07N 36°04' W 005°17'4 0.5
2017-Oct-16 08:24N 36°05' W 005°12'511.8
2017-Oct-16 08:00N 36°03' W 005°18'510.9
2017-Oct-16 07:30N 35°60' W 005°23'510.3
2017-Oct-16 07:00N 35°57' W 005°29'34 1.0
2017-Oct-14 21:23N 36°04' W 006°10'1515.3
2017-Oct-14 20:23N 35°59' W 005°52'1315.5
2017-Oct-14 19:33N 35°58' W 005°36'114.9
2017-Oct-14 19:30N 35°58' W 005°35'4 0.5
2017-Oct-14 10:00N 35°54' W 005°33'0 0.4
2017-Oct-14 09:30N 35°54' W 005°33'0 0.5
2017-Oct-14 08:59N 35°54' W 005°33'75 7.7
2017-Oct-13 23:10N 36°05' W 007°05'212.3
2017-Oct-13 22:59N 36°06' W 007°08'612.5
2017-Oct-13 22:30N 36°07' W 007°15'612.4
2017-Oct-13 22:00N 36°09' W 007°22'612.4
2017-Oct-13 21:30N 36°11' W 007°30'611.9
2017-Oct-13 21:00N 36°12' W 007°37'611.6
2017-Oct-13 20:30N 36°14' W 007°44'612.2
2017-Oct-13 20:00N 36°16' W 007°51'612.4
2017-Oct-13 19:30N 36°17' W 007°59'612.4
2017-Oct-13 19:00N 36°19' W 008°06'612.7
2017-Oct-13 18:30N 36°21' W 008°14'4012.9
2017-Oct-13 15:22N 36°31' W 009°02'613.5
2017-Oct-13 14:54N 36°33' W 009°10'513.3
2017-Oct-13 14:30N 36°35' W 009°16'10912.5
2017-Oct-13 05:43N 38°19' W 009°58'312.8
2017-Oct-13 05:30N 38°21' W 009°60'2212.5
2017-Oct-13 03:45N 38°43' W 010°05'1011.8
2017-Oct-13 02:54N 38°53' W 010°05'511.7
2017-Oct-13 02:29N 38°57' W 010°03'612.0
2017-Oct-13 02:00N 39°03' W 009°59'612.2
2017-Oct-13 01:29N 39°08' W 009°55'8112.2
2017-Oct-12 18:50N 40°23' W 009°13'412.1
2017-Oct-12 18:30N 40°26' W 009°10'612.3
2017-Oct-12 18:00N 40°32' W 009°06'612.3
2017-Oct-12 17:30N 40°37' W 009°03'612.5
2017-Oct-12 17:00N 40°43' W 008°60'612.2
2017-Oct-12 16:31N 40°48' W 008°57'712.3
2017-Oct-12 15:57N 40°55' W 008°53'512.5
2017-Oct-12 15:30N 40°60' W 008°50'612.5
2017-Oct-12 15:00N 41°06' W 008°47'611.7
2017-Oct-12 14:30N 41°10' W 008°42'2 3.1
2017-Oct-12 13:59N 41°12' W 008°41'0 0.0
2017-Oct-12 13:29N 41°12' W 008°41'0 0.0
2017-Oct-12 12:59N 41°12' W 008°41'0 0.0
2017-Oct-12 12:29N 41°12' W 008°41'0 0.0
2017-Oct-12 11:53N 41°12' W 008°41'0 0.0
2017-Oct-12 11:29N 41°12' W 008°41'0 0.0
2017-Oct-12 10:59N 41°12' W 008°41'0 0.0
2017-Oct-12 10:29N 41°12' W 008°41'0 0.0
2017-Oct-12 09:59N 41°12' W 008°41'0 0.0
2017-Oct-12 09:29N 41°12' W 008°41'0 0.0
2017-Oct-12 08:59N 41°12' W 008°41'0 0.0
2017-Oct-12 08:29N 41°12' W 008°41'0 0.0
2017-Oct-12 07:59N 41°12' W 008°41'0 0.0
2017-Oct-12 07:29N 41°12' W 008°41'0 0.0
2017-Oct-12 06:53N 41°12' W 008°41'0 0.0
2017-Oct-12 06:29N 41°12' W 008°41'0 0.0
2017-Oct-12 05:59N 41°12' W 008°41'0 0.0
2017-Oct-12 05:29N 41°12' W 008°41'0 0.0
2017-Oct-12 04:59N 41°12' W 008°41'0 0.0
2017-Oct-12 04:29N 41°12' W 008°41'0 0.0
2017-Oct-12 03:59N 41°12' W 008°41'0 0.0
2017-Oct-12 03:20N 41°12' W 008°41'0 0.0
2017-Oct-12 02:50N 41°12' W 008°41'0 0.0
2017-Oct-12 02:29N 41°12' W 008°41'0 0.0
2017-Oct-12 01:59N 41°12' W 008°41'0 0.0
2017-Oct-12 01:29N 41°12' W 008°41'0 0.0
2017-Oct-12 00:59N 41°12' W 008°41'0 0.0
2017-Oct-12 00:29N 41°12' W 008°41'0 0.0
2017-Oct-11 23:59N 41°12' W 008°41'0 0.0
2017-Oct-11 23:29N 41°12' W 008°41'0 0.0
2017-Oct-11 22:44N 41°12' W 008°41'0 0.0
2017-Oct-11 22:26N 41°12' W 008°41'0 0.0
2017-Oct-11 21:59N 41°12' W 008°41'0 0.0
2017-Oct-11 21:29N 41°12' W 008°41'0 0.0
2017-Oct-11 20:59N 41°12' W 008°41'0 0.5
2017-Oct-11 20:31N 41°12' W 008°41'2 3.6
2017-Oct-11 20:01N 41°10' W 008°42'3 6.2
2017-Oct-11 19:30N 41°09' W 008°46'5 4.8
2017-Oct-11 18:34N 41°12' W 008°50'19 1.0
2017-Oct-10 23:42N 41°17' W 009°14'315.6
2017-Oct-10 23:30N 41°13' W 009°15'3915.5
2017-Oct-10 20:57N 40°36' W 009°29'1515.8
2017-Oct-10 20:01N 40°21' W 009°34'115.6
2017-Oct-10 19:56N 40°20' W 009°34'715.6
2017-Oct-10 19:30N 40°13' W 009°36'815.8
2017-Oct-10 19:01N 40°06' W 009°39'815.6
2017-Oct-10 18:30N 39°58' W 009°42'815.4
2017-Oct-10 18:00N 39°51' W 009°44'815.5
2017-Oct-10 17:31N 39°43' W 009°46'815.5
2017-Oct-10 17:00N 39°36' W 009°49'815.4
2017-Oct-10 16:30N 39°28' W 009°50'815.6
2017-Oct-10 16:00N 39°20' W 009°51'816.1
2017-Oct-10 15:30N 39°12' W 009°51'815.6
2017-Oct-10 15:00N 39°04' W 009°51'1615.9
2017-Oct-10 14:00N 38°49' W 009°52'815.7
2017-Oct-10 13:30N 38°41' W 009°51'612.9
2017-Oct-10 13:00N 38°36' W 009°46'815.7
2017-Oct-10 12:30N 38°36' W 009°36'815.3
2017-Oct-10 12:00N 38°37' W 009°26'510.4
2017-Oct-10 11:30N 38°39' W 009°20'713.1
2017-Oct-10 11:00N 38°41' W 009°12'4 8.8
2017-Oct-10 10:29N 38°43' W 009°07'0 0.0
2017-Oct-10 09:49N 38°43' W 009°07'0 0.0
2017-Oct-10 09:19N 38°43' W 009°07'0 0.0
2017-Oct-10 08:49N 38°43' W 009°07'0 0.0
2017-Oct-10 08:25N 38°43' W 009°07'0 0.0
2017-Oct-10 07:55N 38°43' W 009°07'0 0.0
2017-Oct-10 07:19N 38°43' W 009°07'0 0.0
2017-Oct-10 06:43N 38°43' W 009°07'0 0.0
2017-Oct-10 06:19N 38°43' W 009°07'0 0.0
2017-Oct-10 05:49N 38°43' W 009°07'0 0.0
2017-Oct-10 04:37N 38°43' W 009°07'0 0.0
2017-Oct-10 04:19N 38°43' W 009°07'0 0.0
2017-Oct-10 03:52N 38°43' W 009°07'0 0.0
2017-Oct-10 03:22N 38°43' W 009°07'0 0.0
2017-Oct-10 02:55N 38°43' W 009°07'0 0.0
2017-Oct-10 02:28N 38°43' W 009°07'0 0.0
2017-Oct-10 01:34N 38°43' W 009°07'0 0.0
2017-Oct-10 01:28N 38°43' W 009°07'0 0.0
2017-Oct-10 00:49N 38°43' W 009°07'0 0.0
2017-Oct-10 00:28N 38°43' W 009°07'0 0.0
2017-Oct-09 23:58N 38°43' W 009°07'0 0.0
2017-Oct-09 23:28N 38°43' W 009°07'0 0.0
2017-Oct-09 22:55N 38°43' W 009°07'0 0.0
2017-Oct-09 22:28N 38°43' W 009°07'0 0.0
2017-Oct-09 21:49N 38°43' W 009°07'0 0.0
2017-Oct-09 21:28N 38°43' W 009°07'0 0.0
2017-Oct-09 20:58N 38°43' W 009°07'0 0.0
2017-Oct-09 20:28N 38°43' W 009°07'0 0.0
2017-Oct-09 19:55N 38°43' W 009°07'0 0.0
2017-Oct-09 19:25N 38°43' W 009°07'0 0.0
2017-Oct-09 18:49N 38°43' W 009°07'0 0.0
2017-Oct-09 18:25N 38°43' W 009°07'0 0.0
2017-Oct-09 15:49N 38°43' W 009°07'0 0.0
2017-Oct-09 15:19N 38°43' W 009°07'0 0.0
2017-Oct-09 14:58N 38°43' W 009°07'0 1.0
2017-Oct-09 14:30N 38°43' W 009°07'611.3
2017-Oct-09 14:00N 38°41' W 009°14'5 9.4
2017-Oct-09 13:31N 38°40' W 009°19'611.7
2017-Oct-09 13:00N 38°35' W 009°23'612.5
2017-Oct-09 12:30N 38°29' W 009°23'612.6
2017-Oct-09 12:00N 38°22' W 009°23'612.4
2017-Oct-09 11:30N 38°16' W 009°23'612.5
2017-Oct-09 11:01N 38°10' W 009°23'612.4
2017-Oct-09 10:31N 38°04' W 009°22'612.5
2017-Oct-09 10:01N 37°57' W 009°22'612.5
2017-Oct-09 09:31N 37°51' W 009°23'612.4
2017-Oct-09 09:01N 37°45' W 009°23'510.4
2017-Oct-09 08:30N 37°40' W 009°22'612.4
2017-Oct-09 08:01N 37°34' W 009°22'612.7
2017-Oct-09 07:31N 37°27' W 009°22'612.9
2017-Oct-09 07:01N 37°21' W 009°22'612.3
2017-Oct-09 06:31N 37°15' W 009°21'612.0
2017-Oct-09 06:01N 37°09' W 009°21'612.1
2017-Oct-09 05:30N 37°03' W 009°21'611.8
2017-Oct-09 05:01N 36°57' W 009°19'611.2
2017-Oct-09 04:31N 36°52' W 009°17'611.9
2017-Oct-09 04:01N 36°47' W 009°12'612.2
2017-Oct-09 03:30N 36°44' W 009°06'612.1
2017-Oct-09 03:00N 36°42' W 008°58'612.2
2017-Oct-09 02:31N 36°40' W 008°51'611.9
2017-Oct-09 02:00N 36°38' W 008°44'611.7
2017-Oct-09 01:30N 36°36' W 008°37'612.0
2017-Oct-09 01:00N 36°34' W 008°30'612.5
2017-Oct-09 00:30N 36°32' W 008°23'612.4
2017-Oct-09 00:00N 36°31' W 008°15'612.6
2017-Oct-08 23:30N 36°29' W 008°08'612.3
2017-Oct-08 23:00N 36°27' W 008°01'1012.0
2017-Oct-08 22:10N 36°24' W 007°49'2012.3
2017-Oct-08 20:34N 36°17' W 007°26'112.2
2017-Oct-08 20:26N 36°17' W 007°24'1612.3
2017-Oct-08 19:07N 36°12' W 007°05'312.2
2017-Oct-08 18:54N 36°12' W 007°01'  
Track history (hours):
 
Tides and Currents Weather Stations Pressure Air Temp Water Temp Dewpoint Dewpoint Depression Visibility Wind Speed Wind Dir Waves Ship Positions

OPDR Tanger

Last reported at 2017-Oct-17 18:30 UTC. Time now 2017-Oct-17 18:53 UTC.
Position N 36°42' W 008°56'.

Length 130 m; draft 7 m.

Type: Ship (hazmat cat A). MMSI: 212818000.

Date/timePositionNaut miles runAvg speedWind from/ knotsBaromVisibWave heightAir tempDewpointWater temp
2017-Oct-17 18:30N 36°42' W 008°56'16813.5
2017-Oct-17 06:00N 35°57' W 005°35'714.0
2017-Oct-17 05:30N 36°00' W 005°27'713.0
2017-Oct-17 05:00N 36°06' W 005°24'2 3.5
2017-Oct-17 04:29N 36°08' W 005°25'0 0.0
2017-Oct-17 03:59N 36°08' W 005°25'0 0.0
2017-Oct-17 03:11N 36°08' W 005°25'0 0.0
2017-Oct-17 02:59N 36°08' W 005°25'0 0.0
2017-Oct-17 02:29N 36°08' W 005°25'0 0.0
2017-Oct-17 01:59N 36°08' W 005°25'0 0.0
2017-Oct-17 01:29N 36°08' W 005°25'1 0.2
2017-Oct-16 18:17N 36°07' W 005°24'410.5
2017-Oct-16 17:57N 36°04' W 005°22'4 8.4
2017-Oct-16 17:30N 36°04' W 005°17'2 4.4
2017-Oct-16 17:00N 36°03' W 005°20'3 2.9
2017-Oct-16 16:07N 36°04' W 005°17'4 0.5
2017-Oct-16 08:24N 36°05' W 005°12'511.8
2017-Oct-16 08:00N 36°03' W 005°18'510.9
2017-Oct-16 07:30N 35°60' W 005°23'510.3
2017-Oct-16 07:00N 35°57' W 005°29'34 1.0
2017-Oct-14 21:23N 36°04' W 006°10'1515.3
2017-Oct-14 20:23N 35°59' W 005°52'1315.5
2017-Oct-14 19:33N 35°58' W 005°36'114.9
2017-Oct-14 19:30N 35°58' W 005°35'4 0.5
2017-Oct-14 10:00N 35°54' W 005°33'0 0.4
2017-Oct-14 09:30N 35°54' W 005°33'0 0.5
2017-Oct-14 08:59N 35°54' W 005°33'75 7.7
2017-Oct-13 23:10N 36°05' W 007°05'212.3
2017-Oct-13 22:59N 36°06' W 007°08'612.5
2017-Oct-13 22:30N 36°07' W 007°15'612.4
2017-Oct-13 22:00N 36°09' W 007°22'612.4
2017-Oct-13 21:30N 36°11' W 007°30'611.9
2017-Oct-13 21:00N 36°12' W 007°37'611.6
2017-Oct-13 20:30N 36°14' W 007°44'612.2
2017-Oct-13 20:00N 36°16' W 007°51'612.4
2017-Oct-13 19:30N 36°17' W 007°59'612.4
2017-Oct-13 19:00N 36°19' W 008°06'612.7
2017-Oct-13 18:30N 36°21' W 008°14'4012.9
2017-Oct-13 15:22N 36°31' W 009°02'613.5
2017-Oct-13 14:54N 36°33' W 009°10'513.3
2017-Oct-13 14:30N 36°35' W 009°16'10912.5
2017-Oct-13 05:43N 38°19' W 009°58'312.8
2017-Oct-13 05:30N 38°21' W 009°60'2212.5
2017-Oct-13 03:45N 38°43' W 010°05'1011.8
2017-Oct-13 02:54N 38°53' W 010°05'511.7
2017-Oct-13 02:29N 38°57' W 010°03'612.0
2017-Oct-13 02:00N 39°03' W 009°59'612.2
2017-Oct-13 01:29N 39°08' W 009°55'8112.2
2017-Oct-12 18:50N 40°23' W 009°13'412.1
2017-Oct-12 18:30N 40°26' W 009°10'612.3
2017-Oct-12 18:00N 40°32' W 009°06'612.3
2017-Oct-12 17:30N 40°37' W 009°03'612.5
2017-Oct-12 17:00N 40°43' W 008°60'612.2
2017-Oct-12 16:31N 40°48' W 008°57'712.3
2017-Oct-12 15:57N 40°55' W 008°53'512.5
2017-Oct-12 15:30N 40°60' W 008°50'612.5
2017-Oct-12 15:00N 41°06' W 008°47'611.7
2017-Oct-12 14:30N 41°10' W 008°42'2 3.1
2017-Oct-12 13:59N 41°12' W 008°41'0 0.0
2017-Oct-12 13:29N 41°12' W 008°41'0 0.0
2017-Oct-12 12:59N 41°12' W 008°41'0 0.0
2017-Oct-12 12:29N 41°12' W 008°41'0 0.0
2017-Oct-12 11:53N 41°12' W 008°41'0 0.0
2017-Oct-12 11:29N 41°12' W 008°41'0 0.0
2017-Oct-12 10:59N 41°12' W 008°41'0 0.0
2017-Oct-12 10:29N 41°12' W 008°41'0 0.0
2017-Oct-12 09:59N 41°12' W 008°41'0 0.0
2017-Oct-12 09:29N 41°12' W 008°41'0 0.0
2017-Oct-12 08:59N 41°12' W 008°41'0 0.0
2017-Oct-12 08:29N 41°12' W 008°41'0 0.0
2017-Oct-12 07:59N 41°12' W 008°41'0 0.0
2017-Oct-12 07:29N 41°12' W 008°41'0 0.0
2017-Oct-12 06:53N 41°12' W 008°41'0 0.0
2017-Oct-12 06:29N 41°12' W 008°41'0 0.0
2017-Oct-12 05:59N 41°12' W 008°41'0 0.0
2017-Oct-12 05:29N 41°12' W 008°41'0 0.0
2017-Oct-12 04:59N 41°12' W 008°41'0 0.0
2017-Oct-12 04:29N 41°12' W 008°41'0 0.0
2017-Oct-12 03:59N 41°12' W 008°41'0 0.0
2017-Oct-12 03:20N 41°12' W 008°41'0 0.0
2017-Oct-12 02:50N 41°12' W 008°41'0 0.0
2017-Oct-12 02:29N 41°12' W 008°41'0 0.0
2017-Oct-12 01:59N 41°12' W 008°41'0 0.0
2017-Oct-12 01:29N 41°12' W 008°41'0 0.0
2017-Oct-12 00:59N 41°12' W 008°41'0 0.0
2017-Oct-12 00:29N 41°12' W 008°41'0 0.0
2017-Oct-11 23:59N 41°12' W 008°41'0 0.0
2017-Oct-11 23:29N 41°12' W 008°41'0 0.0
2017-Oct-11 22:44N 41°12' W 008°41'0 0.0
2017-Oct-11 22:26N 41°12' W 008°41'0 0.0
2017-Oct-11 21:59N 41°12' W 008°41'0 0.0
2017-Oct-11 21:29N 41°12' W 008°41'0 0.0
2017-Oct-11 20:59N 41°12' W 008°41'0 0.5
2017-Oct-11 20:31N 41°12' W 008°41'2 3.6
2017-Oct-11 20:01N 41°10' W 008°42'3 6.2
2017-Oct-11 19:30N 41°09' W 008°46'5 4.8
2017-Oct-11 18:34N 41°12' W 008°50'19 1.0
2017-Oct-10 23:42N 41°17' W 009°14'315.6
2017-Oct-10 23:30N 41°13' W 009°15'3915.5
2017-Oct-10 20:57N 40°36' W 009°29'1515.8
2017-Oct-10 20:01N 40°21' W 009°34'115.6
2017-Oct-10 19:56N 40°20' W 009°34'715.6
2017-Oct-10 19:30N 40°13' W 009°36'815.8
2017-Oct-10 19:01N 40°06' W 009°39'815.6
2017-Oct-10 18:30N 39°58' W 009°42'815.4
2017-Oct-10 18:00N 39°51' W 009°44'815.5
2017-Oct-10 17:31N 39°43' W 009°46'815.5
2017-Oct-10 17:00N 39°36' W 009°49'815.4
2017-Oct-10 16:30N 39°28' W 009°50'815.6
2017-Oct-10 16:00N 39°20' W 009°51'816.1
2017-Oct-10 15:30N 39°12' W 009°51'815.6
2017-Oct-10 15:00N 39°04' W 009°51'1615.9
2017-Oct-10 14:00N 38°49' W 009°52'815.7
2017-Oct-10 13:30N 38°41' W 009°51'612.9
2017-Oct-10 13:00N 38°36' W 009°46'815.7
2017-Oct-10 12:30N 38°36' W 009°36'815.3
2017-Oct-10 12:00N 38°37' W 009°26'510.4
2017-Oct-10 11:30N 38°39' W 009°20'713.1
2017-Oct-10 11:00N 38°41' W 009°12'4 8.8
2017-Oct-10 10:29N 38°43' W 009°07'0 0.0
2017-Oct-10 09:49N 38°43' W 009°07'0 0.0
2017-Oct-10 09:19N 38°43' W 009°07'0 0.0
2017-Oct-10 08:49N 38°43' W 009°07'0 0.0
2017-Oct-10 08:25N 38°43' W 009°07'0 0.0
2017-Oct-10 07:55N 38°43' W 009°07'0 0.0
2017-Oct-10 07:19N 38°43' W 009°07'0 0.0
2017-Oct-10 06:43N 38°43' W 009°07'0 0.0
2017-Oct-10 06:19N 38°43' W 009°07'0 0.0
2017-Oct-10 05:49N 38°43' W 009°07'0 0.0
2017-Oct-10 04:37N 38°43' W 009°07'0 0.0
2017-Oct-10 04:19N 38°43' W 009°07'0 0.0
2017-Oct-10 03:52N 38°43' W 009°07'0 0.0
2017-Oct-10 03:22N 38°43' W 009°07'0 0.0
2017-Oct-10 02:55N 38°43' W 009°07'0 0.0
2017-Oct-10 02:28N 38°43' W 009°07'0 0.0
2017-Oct-10 01:34N 38°43' W 009°07'0 0.0
2017-Oct-10 01:28N 38°43' W 009°07'0 0.0
2017-Oct-10 00:49N 38°43' W 009°07'0 0.0
2017-Oct-10 00:28N 38°43' W 009°07'0 0.0
2017-Oct-09 23:58N 38°43' W 009°07'0 0.0
2017-Oct-09 23:28N 38°43' W 009°07'0 0.0
2017-Oct-09 22:55N 38°43' W 009°07'0 0.0
2017-Oct-09 22:28N 38°43' W 009°07'0 0.0
2017-Oct-09 21:49N 38°43' W 009°07'0 0.0
2017-Oct-09 21:28N 38°43' W 009°07'0 0.0
2017-Oct-09 20:58N 38°43' W 009°07'0 0.0
2017-Oct-09 20:28N 38°43' W 009°07'0 0.0
2017-Oct-09 19:55N 38°43' W 009°07'0 0.0
2017-Oct-09 19:25N 38°43' W 009°07'0 0.0
2017-Oct-09 18:49N 38°43' W 009°07'0 0.0
2017-Oct-09 18:25N 38°43' W 009°07'0 0.0
2017-Oct-09 15:49N 38°43' W 009°07'0 0.0
2017-Oct-09 15:19N 38°43' W 009°07'0 0.0
2017-Oct-09 14:58N 38°43' W 009°07'0 1.0
2017-Oct-09 14:30N 38°43' W 009°07'611.3
2017-Oct-09 14:00N 38°41' W 009°14'5 9.4
2017-Oct-09 13:31N 38°40' W 009°19'611.7
2017-Oct-09 13:00N 38°35' W 009°23'612.5
2017-Oct-09 12:30N 38°29' W 009°23'612.6
2017-Oct-09 12:00N 38°22' W 009°23'612.4
2017-Oct-09 11:30N 38°16' W 009°23'612.5
2017-Oct-09 11:01N 38°10' W 009°23'612.4
2017-Oct-09 10:31N 38°04' W 009°22'612.5
2017-Oct-09 10:01N 37°57' W 009°22'612.5
2017-Oct-09 09:31N 37°51' W 009°23'612.4
2017-Oct-09 09:01N 37°45' W 009°23'510.4
2017-Oct-09 08:30N 37°40' W 009°22'612.4
2017-Oct-09 08:01N 37°34' W 009°22'612.7
2017-Oct-09 07:31N 37°27' W 009°22'612.9
2017-Oct-09 07:01N 37°21' W 009°22'612.3
2017-Oct-09 06:31N 37°15' W 009°21'612.0
2017-Oct-09 06:01N 37°09' W 009°21'612.1
2017-Oct-09 05:30N 37°03' W 009°21'611.8
2017-Oct-09 05:01N 36°57' W 009°19'611.2
2017-Oct-09 04:31N 36°52' W 009°17'611.9
2017-Oct-09 04:01N 36°47' W 009°12'612.2
2017-Oct-09 03:30N 36°44' W 009°06'612.1
2017-Oct-09 03:00N 36°42' W 008°58'612.2
2017-Oct-09 02:31N 36°40' W 008°51'611.9
2017-Oct-09 02:00N 36°38' W 008°44'611.7
2017-Oct-09 01:30N 36°36' W 008°37'612.0
2017-Oct-09 01:00N 36°34' W 008°30'612.5
2017-Oct-09 00:30N 36°32' W 008°23'612.4
2017-Oct-09 00:00N 36°31' W 008°15'612.6
2017-Oct-08 23:30N 36°29' W 008°08'612.3
2017-Oct-08 23:00N 36°27' W 008°01'1012.0
2017-Oct-08 22:10N 36°24' W 007°49'2012.3
2017-Oct-08 20:34N 36°17' W 007°26'112.2
2017-Oct-08 20:26N 36°17' W 007°24'1612.3
2017-Oct-08 19:07N 36°12' W 007°05'312.2
2017-Oct-08 18:54N 36°12' W 007°01'  

Dump ship's entire track history